Address 0x6adf19594bc5cd86b4fab4ba1c2b8bc6a8e74ed3 6

 
Ad
Ad
Txn Hash Method
Block
From
To
Value [Txn Fee]
0xd27cba5ac603ec1d69800f4342fc1ac232f38ce9aaea7b2ea0e0959b64fce05aConvert Multiple203659472021-10-19 2:53:4034 mins ago0x6adf19594bc5cd86b4fab4ba1c2b8bc6a8e74ed3OUT 0x0e43245f7af3cfb1d4838e6704f27d09a8b4b0720 MATIC0.253154338524
0x21441a166a11633380827bb96acea9c99347c1b41cd80644ac604e1eceee0fd5Convert Multiple203659252021-10-19 2:52:5635 mins ago0x6adf19594bc5cd86b4fab4ba1c2b8bc6a8e74ed3OUT 0x0e43245f7af3cfb1d4838e6704f27d09a8b4b0720 MATIC0.52589794196
0xb62c0f76f364eacdd34066691ed8d7cf8b69bd34c88dfe4a6927592c8fe55365Convert Multiple203652252021-10-19 2:19:541 hr 8 mins ago0x6adf19594bc5cd86b4fab4ba1c2b8bc6a8e74ed3OUT 0x0e43245f7af3cfb1d4838e6704f27d09a8b4b0720 MATIC0.344342425
0x8f6e56ac1c18bc7362155581f592d8a47ff85a7f91d1604ba3e04b595adaca10Convert Multiple203591592021-10-18 22:16:385 hrs 11 mins ago0x6adf19594bc5cd86b4fab4ba1c2b8bc6a8e74ed3OUT 0x0e43245f7af3cfb1d4838e6704f27d09a8b4b0720 MATIC2.1496364
0x4f434e6fa5546c8559fdbc1cf0b9b37e170d018fb30db7adf85dc6cb5e7b59beConvert Multiple203581732021-10-18 21:23:346 hrs 4 mins ago0x6adf19594bc5cd86b4fab4ba1c2b8bc6a8e74ed3OUT 0x0e43245f7af3cfb1d4838e6704f27d09a8b4b0720 MATIC1.082111388
0x1d2025b6339804fae5096fd01c77761d23c9315374c25aec03cba8ff38713e9aConvert Multiple203581452021-10-18 21:22:386 hrs 5 mins ago0x6adf19594bc5cd86b4fab4ba1c2b8bc6a8e74ed3OUT 0x0e43245f7af3cfb1d4838e6704f27d09a8b4b0720 MATIC1.8852616
0x5bc4f6cdb82cdbd103b0fb250aaa6d4d80be34de4603f3859ef9b3eedfceffafConvert Multiple203511872021-10-18 16:02:1111 hrs 25 mins ago0x6adf19594bc5cd86b4fab4ba1c2b8bc6a8e74ed3OUT 0x0e43245f7af3cfb1d4838e6704f27d09a8b4b0720 MATIC0.369540045
0x7edfd810e5b4404984fab22e5774d6e4e137e18e7653cb82dd169281694b03ebConvert Multiple203501102021-10-18 15:12:2112 hrs 15 mins ago0x6adf19594bc5cd86b4fab4ba1c2b8bc6a8e74ed3OUT 0x0e43245f7af3cfb1d4838e6704f27d09a8b4b0720 MATIC0.4861702
0x2324ba58c07f74c34e453a7938dd7f6307197fc4237f1c3023825ab96c791d89Convert Multiple203409792021-10-18 8:39:4218 hrs 48 mins ago0x6adf19594bc5cd86b4fab4ba1c2b8bc6a8e74ed3OUT 0x0e43245f7af3cfb1d4838e6704f27d09a8b4b0720 MATIC0.32788728
0xc704e6aba6f43bca13d47c14f9dbf459ce9f4f6c16ed41042409e97d1d1bbcf0Convert Multiple203309132021-10-18 1:47:071 day 1 hr ago0x6adf19594bc5cd86b4fab4ba1c2b8bc6a8e74ed3OUT 0x0e43245f7af3cfb1d4838e6704f27d09a8b4b0720 MATIC0.951393
0x6281be8a1658555b7e73de00cc267bf0a4f984c7e4934ddd48ce39bc2b6ee588Convert Multiple203309012021-10-18 1:46:431 day 1 hr ago0x6adf19594bc5cd86b4fab4ba1c2b8bc6a8e74ed3OUT 0x0e43245f7af3cfb1d4838e6704f27d09a8b4b0720 MATIC1.9865836
0x67912966ec5b3806cde6eb2da4d3b4814abadaf3f2914181f8f39a26d87ec28bConvert Multiple203308892021-10-18 1:46:191 day 1 hr ago0x6adf19594bc5cd86b4fab4ba1c2b8bc6a8e74ed3OUT 0x0e43245f7af3cfb1d4838e6704f27d09a8b4b0720 MATIC2.1198224
0x9a984f4b52b53036c0d2422af0b3fcefca16054821519c81e4e2147c142007c5Convert Multiple203308772021-10-18 1:45:511 day 1 hr ago0x6adf19594bc5cd86b4fab4ba1c2b8bc6a8e74ed3OUT 0x0e43245f7af3cfb1d4838e6704f27d09a8b4b0720 MATIC2.0708734
0x84cf6ca37cf183f8ce4da4708605f63c261e0acc96c4abcb05fe078e80fc224dConvert Multiple203307532021-10-18 1:41:391 day 1 hr ago0x6adf19594bc5cd86b4fab4ba1c2b8bc6a8e74ed3OUT 0x0e43245f7af3cfb1d4838e6704f27d09a8b4b0720 MATIC0.337677305
0x8cfe8d1357b064a42a2fa8878dcb357f84ff3cb193a67475d4635b5951492553Convert Multiple203228172021-10-17 20:10:491 day 7 hrs ago0x6adf19594bc5cd86b4fab4ba1c2b8bc6a8e74ed3OUT 0x0e43245f7af3cfb1d4838e6704f27d09a8b4b0720 MATIC0.366089328
0x52f4296ed7db032936821ab5dff3bb4120d754217b6490bde64bd684b31e85ebConvert Multiple203228092021-10-17 20:10:291 day 7 hrs ago0x6adf19594bc5cd86b4fab4ba1c2b8bc6a8e74ed3OUT 0x0e43245f7af3cfb1d4838e6704f27d09a8b4b0720 MATIC0.36607522
0x44c6b6c9ea931f842bf42b7a2d694e121b4171438c15d03e728f27702a8be210Convert Multiple203227892021-10-17 20:09:491 day 7 hrs ago0x6adf19594bc5cd86b4fab4ba1c2b8bc6a8e74ed3OUT 0x0e43245f7af3cfb1d4838e6704f27d09a8b4b0720 MATIC0.415685388
0xfad84b201d934749d237ba5a5679016f7319c0e006c57d4167aa9e87dfd252c1Convert Multiple203227822021-10-17 20:09:351 day 7 hrs ago0x6adf19594bc5cd86b4fab4ba1c2b8bc6a8e74ed3OUT 0x0e43245f7af3cfb1d4838e6704f27d09a8b4b0720 MATIC0.323402849005
0x195de66ff10ba046f17bfa0a83b6da2d2075e28bbfb50412541ec0419980e1f2Convert Multiple203140752021-10-17 14:28:301 day 12 hrs ago0x6adf19594bc5cd86b4fab4ba1c2b8bc6a8e74ed3OUT 0x0e43245f7af3cfb1d4838e6704f27d09a8b4b0720 MATIC0.134976765
0x0612dfb53b7555dd91e4e6d83412a41308de9e6dd5d287b242ab1e27ddcc20a5Convert Multiple203140612021-10-17 14:27:341 day 13 hrs ago0x6adf19594bc5cd86b4fab4ba1c2b8bc6a8e74ed3OUT 0x0e43245f7af3cfb1d4838e6704f27d09a8b4b0720 MATIC0.348483835
0x0cb1e8df213e9388747441d9bd76d62bb21a8c190321124304e4fa5035aa01bbConvert Multiple203140492021-10-17 14:26:461 day 13 hrs ago0x6adf19594bc5cd86b4fab4ba1c2b8bc6a8e74ed3OUT 0x0e43245f7af3cfb1d4838e6704f27d09a8b4b0720 MATIC0.36444408
0x56b3c14d384d1de423a2a99a3ac58c1c901eff189401b7f8bf7878ba2ceee3bdConvert Multiple203135852021-10-17 14:02:101 day 13 hrs ago0x6adf19594bc5cd86b4fab4ba1c2b8bc6a8e74ed3OUT 0x0e43245f7af3cfb1d4838e6704f27d09a8b4b0720 MATIC0.34236069
0x82280c94c040585c7913e4e69ff2710d9a37d010bf9c509847ae5e9e8dca57d4Convert Multiple203055312021-10-17 8:04:531 day 19 hrs ago0x6adf19594bc5cd86b4fab4ba1c2b8bc6a8e74ed3OUT 0x0e43245f7af3cfb1d4838e6704f27d09a8b4b0720 MATIC0.370697915
0xf540f40e989f674bd28049a88a877dd91d9720fe5a3b226b5ab11832c1005fd5Convert Multiple203050212021-10-17 7:45:131 day 19 hrs ago0x6adf19594bc5cd86b4fab4ba1c2b8bc6a8e74ed3OUT 0x0e43245f7af3cfb1d4838e6704f27d09a8b4b0720 MATIC0.35879263
0x6e19fab2833664799cddb2151bcad43d641ee40ce99156ac2eb8d6e72fe06f7fConvert Multiple203049922021-10-17 7:44:151 day 19 hrs ago0x6adf19594bc5cd86b4fab4ba1c2b8bc6a8e74ed3OUT 0x0e43245f7af3cfb1d4838e6704f27d09a8b4b0720 MATIC0.328141625
[ Download CSV Export 
Parent Txn Hash Block From To Value
Loading

Contract Name:
0 MATIC

Compiler Version
0

Optimization Enabled:
0 MATIC

Other Settings:
-NA-
Block Transaction Gas Used Reward
Age Block Fee Address BC Fee Address Voting Power Jailed Incoming
Block Uncle Number Difficulty Gas Used Reward
Loading
Loading
Make sure to use the "Vote Down" button for any spammy posts, and the "Vote Up" for interesting conversations.